Terminal Aerodrome Forecast
Issued by NWS Sioux Falls, SD

Home | Current Version | Previous Version | Graphics & Text | Print | Product List | Glossary On
Versions: 1 2 3 4 5 6 7 8 9 10 11 12 13
314
FTUS43 KFSD 081135
TAFHON
TAF
KHON 081135Z 0812/0912 33020G28KT P6SM OVC035
     FM081400 34024G34KT P6SM BKN025
     FM081800 34022G32KT P6SM SCT200
     FM082300 34016G24KT P6SM SCT120
     FM090200 34011KT P6SM SCT100=

USA.gov is the U.S. government's official web portal to all federal, state and local government web resources and services.